createdAt,value
2019-03-01T00:02:02.542Z,92.90
2019-03-01T00:04:45.330Z,92.60
2019-03-01T00:07:52.025Z,92.40
2019-03-01T00:10:29.028Z,92.50
2019-03-01T00:13:23.886Z,92.50
2019-03-01T00:16:23.458Z,92.60
2019-03-01T00:19:09.079Z,93.30
2019-03-01T00:22:20.712Z,92.40
2019-03-01T00:25:06.589Z,93.00
2019-03-01T00:27:46.431Z,92.30
2019-03-01T00:31:07.041Z,92.40
2019-03-01T00:34:13.569Z,92.90
2019-03-01T00:36:56.589Z,92.60
2019-03-01T00:40:01.934Z,92.70
2019-03-01T00:42:52.562Z,93.10
2019-03-01T00:45:21.872Z,93.00
2019-03-01T00:47:51.168Z,92.60
2019-03-01T00:50:20.571Z,92.80
2019-03-01T00:52:49.864Z,93.10
2019-03-01T00:55:19.168Z,93.00
2019-03-01T00:57:48.364Z,93.00
2019-03-01T01:00:37.353Z,93.00
2019-03-01T01:03:06.648Z,92.80
2019-03-01T01:05:35.963Z,92.70
2019-03-01T01:08:05.279Z,92.50
2019-03-01T01:10:34.561Z,92.40
2019-03-01T01:13:03.862Z,92.50
2019-03-01T01:15:33.163Z,92.70
2019-03-01T01:18:02.478Z,92.60
2019-03-01T01:20:31.812Z,92.60
2019-03-01T01:23:01.087Z,92.60
2019-03-01T01:25:30.334Z,92.50
2019-03-01T01:27:59.642Z,92.70
2019-03-01T01:30:28.940Z,92.30
2019-03-01T01:32:58.335Z,92.60
2019-03-01T01:35:30.971Z,92.70
2019-03-01T01:38:00.866Z,92.40
2019-03-01T01:40:30.142Z,92.60
2019-03-01T01:42:59.446Z,92.50
2019-03-01T01:45:28.754Z,92.50
2019-03-01T01:47:57.984Z,92.40
2019-03-01T01:50:27.232Z,92.30
2019-03-01T01:52:56.934Z,92.20
2019-03-01T01:55:26.180Z,92.20
2019-03-01T01:57:55.434Z,92.20
2019-03-01T02:00:24.741Z,92.20
2019-03-01T02:02:54.059Z,92.20
2019-03-01T02:05:23.359Z,92.10
2019-03-01T02:07:52.674Z,92.10
2019-03-01T02:10:22.269Z,92.10
2019-03-01T02:12:51.734Z,92.10
2019-03-01T02:15:21.034Z,92.10
2019-03-01T02:17:50.352Z,92.10
2019-03-01T02:20:19.668Z,92.00
2019-03-01T02:22:48.969Z,92.00
2019-03-01T02:25:18.520Z,92.00
2019-03-01T02:27:47.927Z,91.90
2019-03-01T02:30:27.883Z,91.90
2019-03-01T02:32:57.441Z,91.80
2019-03-01T02:35:26.987Z,91.80
2019-03-01T02:37:56.361Z,91.80
2019-03-01T02:40:25.730Z,91.70
2019-03-01T02:42:55.111Z,91.70
2019-03-01T02:45:24.427Z,91.60
2019-03-01T02:47:53.883Z,91.60
2019-03-01T02:50:23.251Z,91.60
2019-03-01T02:52:52.643Z,91.60
2019-03-01T02:55:22.411Z,91.50
2019-03-01T02:58:11.269Z,91.50
2019-03-01T03:00:42.272Z,91.40
2019-03-01T03:03:11.707Z,91.30
2019-03-01T03:05:42.567Z,91.20
2019-03-01T03:08:11.842Z,91.20
2019-03-01T03:10:41.532Z,91.10
2019-03-01T03:13:10.842Z,91.20
2019-03-01T03:15:41.836Z,91.10
2019-03-01T03:18:11.242Z,91.10
2019-03-01T03:20:40.534Z,91.10
2019-03-01T03:23:09.763Z,91.10
2019-03-01T03:25:39.065Z,91.00
2019-03-01T03:28:08.375Z,91.00
2019-03-01T03:30:37.791Z,91.00
2019-03-01T03:33:07.097Z,91.00
2019-03-01T03:35:36.460Z,91.00
2019-03-01T03:38:06.024Z,91.00
2019-03-01T03:40:35.451Z,91.00
2019-03-01T03:43:04.884Z,91.00
2019-03-01T03:45:34.182Z,91.00
2019-03-01T03:48:03.514Z,91.00
2019-03-01T03:50:33.735Z,91.10
2019-03-01T03:53:02.965Z,91.00
2019-03-01T03:55:32.875Z,91.00
2019-03-01T03:58:02.110Z,91.00
2019-03-01T04:00:31.484Z,91.00
2019-03-01T04:03:00.986Z,91.10
2019-03-01T04:05:30.420Z,91.00
2019-03-01T04:07:59.713Z,91.00
2019-03-01T04:10:29.167Z,90.90
2019-03-01T04:12:58.477Z,91.00
2019-03-01T04:15:27.772Z,91.00
2019-03-01T04:17:57.089Z,91.00
2019-03-01T04:20:26.339Z,91.00
2019-03-01T04:22:55.749Z,91.00
2019-03-01T04:25:25.145Z,91.00
2019-03-01T04:27:54.601Z,91.00
2019-03-01T04:30:24.698Z,91.20
2019-03-01T04:32:54.817Z,91.30
2019-03-01T04:35:24.147Z,91.20
2019-03-01T04:37:53.464Z,91.30
2019-03-01T04:40:23.767Z,91.40
2019-03-01T04:42:53.332Z,91.30
2019-03-01T04:45:22.699Z,91.40
2019-03-01T04:47:52.014Z,91.40
2019-03-01T04:50:21.416Z,91.40
2019-03-01T04:52:50.799Z,91.40
2019-03-01T04:55:23.629Z,91.50
2019-03-01T04:57:53.009Z,91.50
2019-03-01T05:00:27.113Z,91.60
2019-03-01T05:02:56.449Z,91.50
2019-03-01T05:05:25.919Z,91.60
2019-03-01T05:07:55.391Z,91.50
2019-03-01T05:10:24.926Z,91.60
2019-03-01T05:12:54.391Z,91.70
2019-03-01T05:15:26.702Z,91.70
2019-03-01T05:17:56.091Z,91.60
2019-03-01T05:20:25.430Z,91.80
2019-03-01T05:22:54.770Z,91.80
2019-03-01T05:25:24.174Z,91.90
2019-03-01T05:27:53.638Z,91.80
2019-03-01T05:30:23.025Z,91.90
2019-03-01T05:32:52.413Z,91.80
2019-03-01T05:35:21.818Z,91.90
2019-03-01T05:37:51.839Z,91.90
2019-03-01T05:40:21.303Z,91.80
2019-03-01T05:42:50.693Z,91.90
2019-03-01T05:45:27.048Z,91.80
2019-03-01T05:47:56.716Z,91.90
2019-03-01T05:50:28.990Z,91.80
2019-03-01T05:53:00.405Z,91.80
2019-03-01T05:55:30.775Z,91.70
2019-03-01T05:58:34.532Z,91.70
2019-03-01T06:01:12.334Z,91.80
2019-03-01T06:04:02.680Z,91.80
2019-03-01T06:06:43.751Z,91.80
2019-03-01T06:09:32.721Z,91.80
2019-03-01T06:12:41.087Z,91.80
2019-03-01T06:15:35.790Z,91.70
2019-03-01T06:18:48.036Z,91.70
2019-03-01T06:21:38.645Z,91.70
2019-03-01T06:24:30.386Z,91.70
2019-03-01T06:27:19.296Z,91.80
2019-03-01T06:30:15.058Z,91.80
2019-03-01T06:32:58.186Z,91.80
2019-03-01T06:35:59.122Z,91.90
2019-03-01T06:39:01.534Z,92.00
2019-03-01T06:41:59.678Z,91.90
2019-03-01T06:44:36.730Z,92.00
2019-03-01T06:47:30.180Z,92.10
2019-03-01T06:50:07.307Z,92.00
2019-03-01T06:52:37.403Z,92.10
2019-03-01T06:55:28.538Z,92.20
2019-03-01T06:58:01.350Z,92.10
2019-03-01T07:00:36.240Z,92.10
2019-03-01T07:03:05.703Z,92.10
2019-03-01T07:05:37.725Z,92.30
2019-03-01T07:08:07.633Z,92.10
2019-03-01T07:10:42.079Z,92.20
2019-03-01T07:13:13.215Z,92.30
2019-03-01T07:15:44.505Z,92.20
2019-03-01T07:18:14.128Z,92.30
2019-03-01T07:20:45.246Z,92.20
2019-03-01T07:23:16.927Z,92.20
2019-03-01T07:25:46.532Z,92.20
2019-03-01T07:28:17.759Z,92.20
2019-03-01T07:30:51.387Z,92.20
2019-03-01T07:33:23.946Z,92.20
2019-03-01T07:35:53.638Z,92.20
2019-03-01T07:38:24.460Z,92.30
2019-03-01T07:40:54.189Z,92.20
2019-03-01T07:43:25.763Z,92.20
2019-03-01T07:45:57.193Z,92.30
2019-03-01T07:48:29.558Z,92.30
2019-03-01T07:51:02.434Z,92.30
2019-03-01T07:53:36.152Z,92.40
2019-03-01T07:56:06.895Z,92.50
2019-03-01T07:58:42.426Z,92.40
2019-03-01T08:01:14.640Z,92.30
2019-03-01T08:03:49.796Z,92.30
2019-03-01T08:06:45.591Z,92.20
2019-03-01T08:09:16.870Z,92.30
2019-03-01T08:11:50.491Z,92.40
2019-03-01T08:17:34.928Z,92.30
2019-03-01T08:20:21.100Z,92.30
2019-03-01T08:23:02.142Z,92.30
2019-03-01T08:25:48.871Z,92.30
2019-03-01T08:28:28.772Z,92.20
2019-03-01T08:40:21.762Z,92.20
2019-03-01T08:43:16.755Z,92.20
2019-03-01T08:45:52.260Z,92.20
2019-03-01T08:48:23.706Z,92.20
2019-03-01T08:50:54.321Z,92.20
2019-03-01T08:53:23.731Z,92.30
2019-03-01T08:55:53.054Z,92.30
2019-03-01T08:58:22.478Z,92.40
2019-03-01T09:00:59.328Z,92.50
2019-03-01T09:03:41.591Z,92.40
2019-03-01T09:06:12.961Z,92.30
2019-03-01T09:08:46.961Z,92.30
2019-03-01T09:11:18.304Z,92.20
2019-03-01T09:13:48.900Z,92.10
2019-03-01T09:16:22.794Z,92.10
2019-03-01T09:18:53.326Z,92.20
2019-03-01T09:21:54.546Z,92.10
2019-03-01T09:24:28.875Z,92.00
2019-03-01T09:27:04.054Z,92.00
2019-03-01T09:29:41.707Z,92.00
2019-03-01T09:35:17.344Z,92.00
2019-03-01T09:37:52.934Z,91.90
2019-03-01T09:40:30.427Z,91.90
2019-03-01T09:43:01.806Z,91.90
2019-03-01T09:48:28.453Z,91.80
2019-03-01T09:54:10.272Z,91.70
2019-03-01T09:56:55.045Z,91.60
2019-03-01T09:59:30.409Z,91.60
2019-03-01T10:04:58.877Z,91.50
2019-03-01T10:07:29.625Z,91.50
2019-03-01T10:10:00.243Z,91.40
2019-03-01T10:12:30.593Z,91.40
2019-03-01T10:17:59.916Z,91.30
2019-03-01T10:20:35.559Z,91.30
2019-03-01T10:23:10.518Z,91.30
2019-03-01T10:25:41.771Z,91.30
2019-03-01T10:28:17.053Z,91.30
2019-03-01T10:30:46.453Z,91.30
2019-03-01T10:33:15.827Z,91.30
2019-03-01T10:35:45.135Z,91.30
2019-03-01T10:38:14.606Z,91.30
2019-03-01T10:40:43.940Z,91.30
2019-03-01T10:43:13.599Z,91.30
2019-03-01T10:45:43.538Z,91.20
2019-03-01T10:48:12.881Z,91.10
2019-03-01T10:50:42.881Z,91.20
2019-03-01T10:53:12.517Z,91.10
2019-03-01T10:55:42.824Z,91.10
2019-03-01T10:58:15.160Z,91.10
2019-03-01T11:00:45.688Z,91.10
2019-03-01T11:03:15.254Z,91.10
2019-03-01T11:05:44.840Z,91.20
2019-03-01T11:08:14.408Z,91.20
2019-03-01T11:10:44.359Z,91.20
2019-03-01T11:13:18.800Z,91.20
2019-03-01T11:15:48.510Z,91.10
2019-03-01T11:18:18.052Z,91.20
2019-03-01T11:20:47.609Z,91.10
2019-03-01T11:23:17.654Z,91.10
2019-03-01T11:25:47.406Z,90.80
2019-03-01T11:28:16.984Z,90.60
2019-03-01T11:30:48.495Z,90.20
2019-03-01T11:33:18.295Z,90.10
2019-03-01T11:35:47.956Z,90.00
2019-03-01T11:38:17.531Z,89.60
2019-03-01T11:40:47.241Z,89.00
2019-03-01T11:43:17.152Z,88.50
2019-03-01T11:45:46.849Z,88.60
2019-03-01T11:48:20.738Z,88.20
2019-03-01T11:50:51.344Z,88.10
2019-03-01T11:53:21.174Z,87.90
2019-03-01T11:55:50.878Z,87.90
2019-03-01T11:58:20.600Z,87.30
2019-03-01T12:00:55.771Z,87.20
2019-03-01T12:03:25.533Z,87.20
2019-03-01T12:05:55.210Z,87.10
2019-03-01T12:08:26.126Z,86.60
2019-03-01T12:10:56.130Z,86.50
2019-03-01T12:13:25.619Z,86.70
2019-03-01T12:15:56.007Z,86.60
2019-03-01T12:18:25.631Z,86.70
2019-03-01T12:20:55.712Z,86.30
2019-03-01T12:23:27.141Z,86.60
2019-03-01T12:25:56.710Z,86.30
2019-03-01T12:28:27.185Z,86.40
2019-03-01T12:30:57.954Z,86.40
2019-03-01T12:33:27.591Z,86.00
2019-03-01T12:36:00.008Z,86.00
2019-03-01T12:38:31.057Z,85.30
2019-03-01T12:41:01.562Z,84.50
2019-03-01T12:43:31.178Z,84.40
2019-03-01T12:46:01.477Z,84.30
2019-03-01T12:48:31.115Z,84.10
2019-03-01T12:51:01.667Z,83.70
2019-03-01T12:53:32.902Z,82.70
2019-03-01T12:56:02.457Z,82.90
2019-03-01T12:58:32.064Z,82.90
2019-03-01T13:01:02.986Z,83.00
2019-03-01T13:03:33.182Z,82.80
2019-03-01T13:06:06.973Z,81.80
2019-03-01T13:08:36.560Z,81.80
2019-03-01T13:11:06.741Z,81.80
2019-03-01T13:13:39.943Z,81.50
2019-03-01T13:16:10.179Z,81.30
2019-03-01T13:18:39.614Z,81.00
2019-03-01T13:21:12.949Z,81.40
2019-03-01T13:23:41.361Z,81.40
2019-03-01T13:26:11.213Z,81.40
2019-03-01T13:28:40.621Z,81.10
2019-03-01T13:31:11.385Z,81.00
2019-03-01T13:33:41.943Z,81.00
2019-03-01T13:36:13.271Z,81.30
2019-03-01T13:38:43.697Z,81.10
2019-03-01T13:41:13.818Z,80.70
2019-03-01T13:43:43.614Z,80.50
2019-03-01T13:46:15.637Z,80.20
2019-03-01T13:52:19.230Z,80.10
2019-03-01T13:54:52.240Z,79.80
2019-03-01T13:57:35.738Z,79.80
2019-03-01T14:00:11.151Z,79.80
2019-03-01T14:02:43.038Z,79.80
2019-03-01T14:05:18.214Z,79.20
2019-03-01T14:19:27.259Z,79.20
2019-03-01T14:24:30.765Z,79.30
2019-03-01T14:27:00.480Z,78.70
2019-03-01T14:29:41.891Z,78.80
2019-03-01T14:32:20.842Z,78.10
2019-03-01T14:35:15.531Z,78.10
2019-03-01T14:38:08.279Z,78.70
2019-03-01T14:40:59.648Z,79.00
2019-03-01T14:43:28.710Z,78.80
2019-03-01T14:46:06.874Z,78.80
2019-03-01T14:48:39.703Z,78.50
2019-03-01T14:51:10.817Z,78.50
2019-03-01T14:53:44.398Z,78.30
2019-03-01T14:56:25.307Z,78.30
2019-03-01T14:58:59.862Z,78.70
2019-03-01T15:01:49.732Z,78.70
2019-03-01T15:04:19.479Z,78.90
2019-03-01T15:06:51.479Z,79.20
2019-03-01T15:09:22.045Z,79.10
2019-03-01T15:11:52.142Z,79.20
2019-03-01T15:15:01.557Z,79.20
2019-03-01T15:17:31.786Z,79.30
2019-03-01T15:20:03.393Z,79.30
2019-03-01T15:22:33.156Z,79.60
2019-03-01T15:25:03.867Z,79.60
2019-03-01T15:27:39.851Z,79.70
2019-03-01T15:30:17.767Z,79.90
2019-03-01T15:32:48.425Z,80.20
2019-03-01T15:35:19.680Z,80.00
2019-03-01T15:37:51.068Z,80.00
2019-03-01T15:40:20.915Z,80.00
2019-03-01T15:42:51.445Z,80.00
2019-03-01T15:45:24.230Z,79.90
2019-03-01T15:47:53.939Z,80.00
2019-03-01T15:53:31.807Z,79.10
2019-03-01T16:02:16.120Z,79.90
2019-03-01T16:13:51.852Z,81.20
2019-03-01T16:22:29.853Z,80.20
2019-03-01T16:28:42.355Z,79.90
2019-03-01T16:30:56.821Z,79.90
2019-03-01T16:33:46.277Z,79.90
2019-03-01T16:37:00.083Z,80.60
2019-03-01T16:42:26.316Z,80.20
2019-03-01T16:45:02.903Z,79.90
2019-03-01T16:50:24.368Z,79.40
2019-03-01T16:52:58.167Z,79.40
2019-03-01T16:55:31.868Z,79.50
2019-03-01T16:58:07.386Z,79.50
2019-03-01T17:00:36.976Z,79.40
2019-03-01T17:09:54.870Z,79.30
2019-03-01T17:12:27.481Z,79.10
2019-03-01T17:15:05.909Z,79.30
2019-03-01T17:17:38.333Z,79.50
2019-03-01T17:20:11.335Z,79.70
2019-03-01T17:22:41.893Z,79.70
2019-03-01T17:25:15.603Z,79.50
2019-03-01T17:27:50.123Z,79.70
2019-03-01T17:30:24.290Z,79.30
2019-03-01T17:32:55.420Z,79.40
2019-03-01T17:35:25.931Z,79.30
2019-03-01T17:37:56.815Z,79.30
2019-03-01T17:40:29.339Z,79.10
2019-03-01T17:42:58.044Z,79.20
2019-03-01T17:45:29.272Z,78.80
2019-03-01T17:47:58.924Z,79.00
2019-03-01T17:53:43.017Z,79.10
2019-03-01T17:56:12.310Z,78.70
2019-03-01T17:58:43.638Z,78.90
2019-03-01T18:01:14.436Z,79.40
2019-03-01T18:03:44.314Z,79.40
2019-03-01T18:06:41.583Z,79.50
2019-03-01T18:12:48.013Z,79.50
2019-03-01T18:15:18.434Z,79.60
2019-03-01T18:20:47.177Z,79.60
2019-03-01T18:32:30.280Z,80.00
2019-03-01T18:35:11.468Z,80.20
2019-03-01T18:37:55.096Z,80.20
2019-03-01T18:40:56.159Z,80.50
2019-03-01T18:43:35.390Z,80.40
2019-03-01T18:46:20.459Z,80.50
2019-03-01T18:48:49.912Z,80.60
2019-03-01T18:51:29.078Z,80.80
2019-03-01T18:54:12.427Z,80.80
2019-03-01T18:56:47.835Z,80.90
2019-03-01T19:09:21.105Z,81.40
2019-03-01T19:12:29.475Z,81.40
2019-03-01T19:18:18.421Z,81.80
2019-03-01T19:21:09.349Z,81.80
2019-03-01T19:23:50.360Z,81.90
2019-03-01T19:26:42.386Z,82.10
2019-03-01T19:29:19.702Z,82.10
2019-03-01T19:32:05.827Z,82.20
2019-03-01T19:40:43.389Z,82.60
2019-03-01T19:43:13.171Z,82.70
2019-03-01T19:45:42.741Z,83.00
2019-03-01T19:48:12.512Z,83.10
2019-03-01T19:50:43.586Z,83.20
2019-03-01T19:53:13.388Z,83.30
2019-03-01T19:55:43.948Z,83.20
2019-03-01T19:58:16.788Z,83.70
2019-03-01T20:00:46.514Z,83.60
2019-03-01T20:03:16.042Z,83.90
2019-03-01T20:05:45.699Z,83.90
2019-03-01T20:08:15.362Z,84.00
2019-03-01T20:10:47.642Z,84.40
2019-03-01T20:13:25.732Z,84.00
2019-03-01T20:16:03.628Z,84.10
2019-03-01T20:18:36.291Z,84.40
2019-03-01T20:21:10.539Z,84.40
2019-03-01T20:23:42.409Z,84.90
2019-03-01T20:26:14.291Z,84.80
2019-03-01T20:28:43.931Z,84.80
2019-03-01T20:31:15.224Z,84.80
2019-03-01T20:33:44.948Z,85.00
2019-03-01T20:36:17.690Z,84.90
2019-03-01T20:38:45.687Z,84.90
2019-03-01T20:41:15.378Z,85.10
2019-03-01T20:43:44.871Z,85.60
2019-03-01T20:46:14.750Z,85.50
2019-03-01T20:48:44.408Z,85.70
2019-03-01T20:51:16.059Z,85.60
2019-03-01T20:53:49.329Z,85.70
2019-03-01T20:56:17.207Z,85.90
2019-03-01T20:58:46.744Z,86.10
2019-03-01T21:01:16.341Z,86.20
2019-03-01T21:03:46.774Z,85.90
2019-03-01T21:06:16.214Z,86.30
2019-03-01T21:08:45.615Z,86.00
2019-03-01T21:11:15.247Z,86.00
2019-03-01T21:13:49.112Z,86.00
2019-03-01T21:16:17.568Z,86.10
2019-03-01T21:18:47.742Z,86.30
2019-03-01T21:21:22.123Z,86.30
2019-03-01T21:23:54.320Z,86.30
2019-03-01T21:26:24.135Z,86.40
2019-03-01T21:28:53.761Z,86.40
2019-03-01T21:31:23.146Z,86.60
2019-03-01T21:33:52.617Z,86.70
2019-03-01T21:36:22.911Z,87.10
2019-03-01T21:38:53.288Z,86.80
2019-03-01T21:41:22.825Z,87.10
2019-03-01T21:43:52.369Z,86.80
2019-03-01T21:46:22.340Z,87.10
2019-03-01T21:48:52.013Z,87.00
2019-03-01T21:51:21.510Z,86.90
2019-03-01T21:53:51.720Z,87.10
2019-03-01T21:56:21.220Z,87.20
2019-03-01T21:58:51.331Z,87.40
2019-03-01T22:01:20.871Z,87.20
2019-03-01T22:03:50.429Z,87.20
2019-03-01T22:06:20.590Z,87.50
2019-03-01T22:08:51.038Z,87.50
2019-03-01T22:11:20.987Z,87.20
2019-03-01T22:13:50.422Z,87.30
2019-03-01T22:16:19.863Z,87.10
2019-03-01T22:18:49.570Z,87.20
2019-03-01T22:21:22.594Z,87.20
2019-03-01T22:23:51.531Z,87.20
2019-03-01T22:26:21.758Z,87.50
2019-03-01T22:28:51.172Z,87.40
2019-03-01T22:31:20.558Z,87.50
2019-03-01T22:33:52.622Z,87.50
2019-03-01T22:36:21.212Z,87.80
2019-03-01T22:38:50.643Z,88.00
2019-03-01T22:41:20.037Z,87.80
2019-03-01T22:43:49.430Z,88.20
2019-03-01T22:46:20.996Z,88.20
2019-03-01T22:48:56.155Z,88.20
2019-03-01T22:51:21.303Z,88.40
2019-03-01T22:53:51.404Z,88.30
2019-03-01T22:56:23.071Z,88.40
2019-03-01T22:59:00.111Z,88.10
2019-03-01T23:01:32.719Z,88.40
2019-03-01T23:04:02.674Z,88.30
2019-03-01T23:06:32.179Z,88.30
2019-03-01T23:09:03.460Z,88.30
2019-03-01T23:11:33.701Z,88.20
2019-03-01T23:14:03.182Z,88.30
2019-03-01T23:16:32.682Z,88.40
2019-03-01T23:19:02.431Z,88.30
2019-03-01T23:21:32.673Z,88.30
2019-03-01T23:24:03.333Z,88.40
2019-03-01T23:26:32.804Z,88.40
2019-03-01T23:29:02.255Z,88.40
2019-03-01T23:31:31.922Z,88.60
2019-03-01T23:34:03.617Z,89.20
2019-03-01T23:36:32.462Z,89.30
2019-03-01T23:39:02.043Z,89.30
2019-03-01T23:41:31.998Z,90.30
2019-03-01T23:44:02.808Z,89.80
2019-03-01T23:46:33.620Z,90.20
2019-03-01T23:49:06.498Z,90.20
2019-03-01T23:51:35.942Z,90.20
2019-03-01T23:54:05.637Z,90.10
2019-03-01T23:56:36.586Z,90.30
2019-03-01T23:59:06.015Z,91.50
